Time;durP1;ratioP1;P1;durP2;ratioP2;P2;SDS_P1;SDS_P2;PMS_P1;PMS_P2;Temp;Humidity;BMP_temperature;BMP_pressure;BME280_temperature;BME280_humidity;BME280_pressure;Samples;Min_cycle;Max_cycle;Signal;HPM_P1;HPM_P2
2021/12/26 00:01:18;;;;;;;4.32;2.50;;;;;;;-10.82;69.14;98415.28;4961473;29;20503;-87
2021/12/26 00:03:46;;;;;;;4.88;2.72;;;;;;;-10.77;69.38;98407.22;4962256;29;20062;-84
2021/12/26 00:06:21;;;;;;;5.50;2.47;;;;;;;-10.76;69.46;98408.09;4958619;29;20071;-86
2021/12/26 00:08:53;;;;;;;4.15;2.20;;;;;;;-10.73;69.15;98410.84;4956717;29;20063;-88
2021/12/26 00:11:21;;;;;;;4.82;2.92;;;;;;;-10.82;69.32;98402.66;4956791;29;20070;-86
2021/12/26 00:13:50;;;;;;;4.93;2.80;;;;;;;-10.80;69.31;98413.72;4953544;28;20062;-85
2021/12/26 00:16:17;;;;;;;4.55;3.03;;;;;;;-11.00;69.46;98388.09;4975046;28;20067;-85
2021/12/26 00:18:46;;;;;;;4.82;2.90;;;;;;;-10.81;69.49;98419.56;4964083;29;20110;-86
2021/12/26 00:21:17;;;;;;;5.80;2.90;;;;;;;-10.90;69.38;98403.81;4960909;29;20527;-84
2021/12/26 00:23:45;;;;;;;3.42;2.40;;;;;;;-10.83;69.51;98411.03;4957845;29;20059;-86
2021/12/26 00:26:13;;;;;;;3.90;2.20;;;;;;;-10.89;69.56;98411.50;4960142;29;20067;-87
2021/12/26 00:28:41;;;;;;;5.18;2.38;;;;;;;-10.89;69.22;98408.09;4960068;29;20055;-85
2021/12/26 00:31:08;;;;;;;2.67;2.22;;;;;;;-10.89;69.39;98410.63;4943956;29;20106;-86
2021/12/26 00:33:35;;;;;;;4.22;2.58;;;;;;;-11.14;69.38;98378.78;4955840;29;20055;-86
2021/12/26 00:36:04;;;;;;;6.70;3.22;;;;;;;-11.04;69.32;98406.34;4956779;29;20067;-87
2021/12/26 00:38:32;;;;;;;5.40;2.78;;;;;;;-11.06;69.71;98412.94;4941062;29;20061;-86
2021/12/26 00:41:11;;;;;;;5.60;2.20;;;;;;;-11.27;69.81;98389.75;4926784;29;20139;-88
2021/12/26 00:43:39;;;;;;;6.00;2.92;;;;;;;-11.12;69.46;98420.09;4957478;29;20118;-86
2021/12/26 00:46:06;;;;;;;7.45;2.65;;;;;;;-11.19;69.24;98392.75;4958135;29;20059;-86
2021/12/26 00:48:33;;;;;;;3.85;2.38;;;;;;;-11.24;69.51;98410.09;4941367;29;20098;-87
2021/12/26 00:51:01;;;;;;;4.85;2.50;;;;;;;-11.35;69.46;98393.41;4958193;29;20062;-87
2021/12/26 00:53:28;;;;;;;7.50;2.88;;;;;;;-11.38;69.74;98386.53;4941188;29;20054;-87
2021/12/26 00:55:55;;;;;;;6.30;2.55;;;;;;;-11.24;69.44;98410.09;4955790;29;20075;-85
2021/12/26 00:58:22;;;;;;;6.05;2.75;;;;;;;-11.34;69.90;98405.22;4954819;28;20060;-85
2021/12/26 01:00:51;;;;;;;5.60;2.80;;;;;;;-11.13;69.79;98420.88;4958315;29;20059;-86
2021/12/26 01:03:19;;;;;;;5.35;2.42;;;;;;;-10.96;69.69;98434.59;4959703;29;20047;-85
2021/12/26 01:05:51;;;;;;;7.80;3.28;;;;;;;-10.91;68.95;98418.09;4941885;29;20058;-85
2021/12/26 01:08:24;;;;;;;5.07;2.75;;;;;;;-10.82;68.84;98407.69;4942100;29;20051;-84
2021/12/26 01:11:07;;;;;;;7.32;3.30;;;;;;;-10.73;68.88;98420.94;4959045;29;20147;-85
2021/12/26 01:13:39;;;;;;;6.70;3.00;;;;;;;-10.56;69.03;98422.84;4938755;29;20059;-85
2021/12/26 01:16:28;;;;;;;5.63;3.05;;;;;;;-10.36;68.75;98423.22;4925173;29;20051;-85
2021/12/26 01:19:03;;;;;;;5.68;2.83;;;;;;;-10.28;68.81;98427.06;4922588;29;20060;-84
2021/12/26 01:21:31;;;;;;;5.53;3.00;;;;;;;-10.33;68.33;98411.63;4922026;29;20079;-84
2021/12/26 01:24:14;;;;;;;5.63;2.92;;;;;;;-10.20;68.89;98422.47;4922333;29;20104;-84
2021/12/26 01:26:43;;;;;;;6.85;3.35;;;;;;;-10.09;68.80;98429.03;4922888;29;20059;-89
2021/12/26 01:29:18;;;;;;;6.93;3.08;;;;;;;-9.99;68.77;98403.56;4923214;29;20052;-86
2021/12/26 01:31:46;;;;;;;5.22;3.05;;;;;;;-9.84;68.57;98396.03;4929409;29;20091;-86
2021/12/26 01:34:51;;;;;;;4.63;2.38;;;;;;;-9.76;68.66;98411.66;4940544;29;20051;-88
2021/12/26 01:37:39;;;;;;;5.88;3.20;;;;;;;-9.76;68.68;98396.50;4958421;29;20515;-89
2021/12/26 01:40:35;;;;;;;6.57;3.70;;;;;;;-9.68;68.79;98386.06;4941632;29;20430;-88
2021/12/26 01:43:11;;;;;;;6.03;3.03;;;;;;;-9.56;68.95;98382.50;4958052;29;20049;-87
2021/12/26 01:45:44;;;;;;;5.28;2.92;;;;;;;-9.57;69.17;98365.56;4941382;29;20039;-89
2021/12/26 01:48:12;;;;;;;6.65;3.03;;;;;;;-9.63;69.29;98363.56;4959041;29;20061;-88
2021/12/26 01:50:49;;;;;;;6.22;3.45;;;;;;;-9.66;69.77;98376.03;4962927;29;20142;-86
2021/12/26 01:53:19;;;;;;;7.20;3.50;;;;;;;-10.02;70.65;98322.56;4941906;29;20059;-86
2021/12/26 01:55:47;;;;;;;7.40;3.60;;;;;;;-9.79;70.56;98383.66;4924400;29;20055;-87
2021/12/26 01:58:23;;;;;;;8.45;3.92;;;;;;;-9.86;71.00;98369.81;4924604;29;20391;-87
2021/12/26 02:00:57;;;;;;;5.25;2.88;;;;;;;-9.83;71.28;98369.97;4941605;29;20150;-92
2021/12/26 02:03:27;;;;;;;6.38;3.15;;;;;;;-9.86;71.35;98371.47;4936873;29;20059;-86
2021/12/26 02:05:56;;;;;;;6.55;3.10;;;;;;;-9.84;71.06;98385.94;4957316;29;20055;-85
2021/12/26 02:08:25;;;;;;;35.47;11.48;;;;;;;-9.84;71.33;98378.34;4961958;29;20091;-87
2021/12/26 02:10:52;;;;;;;10.30;4.03;;;;;;;-9.87;71.35;98368.06;4950589;29;20159;-87
2021/12/26 02:13:20;;;;;;;6.55;3.38;;;;;;;-9.81;71.55;98373.47;4943738;29;20106;-87
2021/12/26 02:15:51;;;;;;;7.03;3.00;;;;;;;-9.92;71.40;98341.63;4934372;29;20055;-87
2021/12/26 02:18:23;;;;;;;4.80;2.78;;;;;;;-9.95;71.22;98347.38;4954253;29;20055;-87
2021/12/26 02:29:02;;;;;;;5.50;3.17;;;;;;;-9.87;71.53;98378.19;4960766;28;20065;-88
2021/12/26 02:31:30;;;;;;;4.22;2.83;;;;;;;-9.78;71.48;98373.66;4960910;28;20097;-87
2021/12/26 02:33:57;;;;;;;6.47;3.47;;;;;;;-9.77;71.44;98372.00;4978335;28;20047;-90
2021/12/26 02:36:25;;;;;;;7.28;3.20;;;;;;;-9.72;71.19;98368.06;4961126;28;20511;-85
2021/12/26 02:38:53;;;;;;;4.80;3.30;;;;;;;-9.78;71.33;98343.34;4950254;29;20149;-90
2021/12/26 02:41:20;;;;;;;5.30;3.35;;;;;;;-9.65;71.31;98364.28;4931273;29;20114;-86
2021/12/26 02:43:47;;;;;;;5.10;2.85;;;;;;;-9.57;71.24;98363.03;4951752;29;20078;-85
2021/12/26 02:46:15;;;;;;;4.95;3.28;;;;;;;-10.06;71.55;98297.03;4935702;29;20553;-84
2021/12/26 02:48:44;;;;;;;10.18;3.40;;;;;;;-9.81;71.45;98345.66;4954655;28;20047;-87
2021/12/26 02:51:12;;;;;;;6.60;3.20;;;;;;;-10.03;71.33;98320.78;4934604;28;20121;-87
2021/12/26 02:53:40;;;;;;;5.93;3.17;;;;;;;-9.97;72.08;98343.91;4945135;28;20058;-90
2021/12/26 02:56:07;;;;;;;8.38;3.30;;;;;;;-10.01;72.11;98341.97;4959949;28;20065;-87
2021/12/26 02:58:36;;;;;;;6.55;4.00;;;;;;;-10.10;72.34;98337.25;4928056;28;20411;-87
2021/12/26 03:01:14;;;;;;;6.03;3.78;;;;;;;-9.91;72.27;98363.63;4943698;28;20051;-87
2021/12/26 03:03:42;;;;;;;5.57;3.45;;;;;;;-9.91;72.26;98361.94;4959799;28;20051;-84
2021/12/26 03:06:19;;;;;;;7.63;3.60;;;;;;;-9.90;72.65;98360.28;4964710;28;20055;-85
2021/12/26 03:08:48;;;;;;;10.40;4.30;;;;;;;-10.00;72.68;98331.09;4976634;28;20054;-85
2021/12/26 03:11:15;;;;;;;5.97;3.45;;;;;;;-10.13;72.86;98304.25;4928124;28;20422;-86
2021/12/26 03:13:43;;;;;;;6.82;3.35;;;;;;;-9.95;72.45;98341.47;4944429;28;20425;-86
2021/12/26 03:16:11;;;;;;;9.30;3.92;;;;;;;-9.95;72.85;98341.47;4976439;28;20047;-87
2021/12/26 03:18:39;;;;;;;6.78;3.58;;;;;;;-10.04;72.83;98311.50;4961801;28;20595;-86
2021/12/26 03:21:06;;;;;;;7.85;3.85;;;;;;;-10.02;73.25;98325.09;4918167;29;20056;-85
2021/12/26 03:23:33;;;;;;;5.82;3.40;;;;;;;-10.02;72.96;98320.03;4955215;28;20426;-86
2021/12/26 03:26:04;;;;;;;6.57;3.67;;;;;;;-10.08;73.00;98346.59;4961795;29;20475;-86
2021/12/26 03:28:32;;;;;;;6.22;3.50;;;;;;;-9.99;72.66;98319.34;4960483;29;20055;-86
2021/12/26 03:31:02;;;;;;;6.30;2.95;;;;;;;-9.99;73.06;98330.31;4964639;29;20122;-84
2021/12/26 03:33:31;;;;;;;;;;;;;;;-10.05;72.48;98341.69;4967112;29;20081;-87
2021/12/26 03:35:58;;;;;;;7.15;3.20;;;;;;;-10.08;72.91;98322.19;4953774;29;19907;-89
2021/12/26 03:38:28;;;;;;;6.32;3.30;;;;;;;-10.12;73.22;98318.59;4977904;28;20054;-89
2021/12/26 03:41:11;;;;;;;5.80;3.53;;;;;;;-9.97;72.94;98331.28;4961449;29;20130;-88
2021/12/26 03:43:42;;;;;;;9.70;3.75;;;;;;;-9.95;73.13;98323.78;4978548;28;20043;-87
2021/12/26 03:46:09;;;;;;;7.95;3.53;;;;;;;-10.06;73.01;98307.13;4978146;28;20055;-86
2021/12/26 03:48:37;;;;;;;6.88;3.40;;;;;;;-9.89;73.01;98329.19;4969002;29;20511;-85
2021/12/26 03:51:05;;;;;;;5.90;3.55;;;;;;;-9.88;73.26;98331.78;4955690;29;20055;-85
2021/12/26 03:53:32;;;;;;;5.93;3.42;;;;;;;-9.82;73.48;98327.91;4954974;29;20062;-85
2021/12/26 03:56:03;;;;;;;5.20;2.83;;;;;;;-9.81;73.46;98322.91;4967417;29;20118;-85
2021/12/26 03:58:31;;;;;;;7.10;4.18;;;;;;;-9.93;73.70;98300.34;4969658;29;20062;-86
2021/12/26 04:01:00;;;;;;;7.38;3.35;;;;;;;-9.87;73.76;98307.44;4975054;28;20066;-84
2021/12/26 04:03:27;;;;;;;5.10;3.28;;;;;;;-9.76;73.71;98319.03;4979636;28;20039;-85
2021/12/26 04:05:57;;;;;;;;;;;;;;;-9.80;73.36;98318.75;4958036;29;20083;-84
2021/12/26 04:08:26;;;;;;;6.45;4.03;;;;;;;-9.89;73.51;98303.94;4955494;29;19933;-89
2021/12/26 04:10:53;;;;;;;7.25;3.13;;;;;;;-9.77;73.77;98324.84;4955969;29;20571;-89
2021/12/26 04:13:20;;;;;;;8.00;3.50;;;;;;;-9.96;73.73;98294.22;4940767;29;20058;-88
2021/12/26 04:15:48;;;;;;;6.43;2.90;;;;;;;-9.77;73.41;98326.50;4935191;29;20513;-90
2021/12/26 04:18:15;;;;;;;6.05;2.95;;;;;;;-9.80;73.48;98317.09;4955191;29;20086;-90
2021/12/26 04:20:43;;;;;;;6.60;2.65;;;;;;;-9.77;73.77;98326.50;4924774;29;20087;-89
2021/12/26 04:23:14;;;;;;;5.32;3.10;;;;;;;-9.79;73.97;98330.59;4939835;29;20055;-89
2021/12/26 04:25:43;;;;;;;7.30;3.83;;;;;;;-9.76;73.82;98333.31;4938959;29;20047;-89
2021/12/26 04:28:11;;;;;;;4.72;2.92;;;;;;;-9.86;73.59;98314.22;4944927;28;20049;-88
2021/12/26 04:30:40;;;;;;;5.72;3.38;;;;;;;-9.80;73.69;98327.22;4953697;28;20082;-88
2021/12/26 04:33:07;;;;;;;6.55;3.30;;;;;;;-9.81;74.10;98325.44;4975862;28;20470;-89
2021/12/26 04:35:34;;;;;;;10.93;3.10;;;;;;;-9.97;74.12;98293.38;4952534;29;20400;-88
2021/12/26 04:38:01;;;;;;;5.57;2.67;;;;;;;-9.82;74.30;98323.72;4927586;29;20078;-87
2021/12/26 04:40:29;;;;;;;5.40;3.05;;;;;;;-9.87;74.06;98297.31;4962694;29;20055;-87
2021/12/26 04:43:21;;;;;;;6.35;3.25;;;;;;;-9.97;74.22;98295.03;4946436;29;20059;-88
2021/12/26 04:46:09;;;;;;;7.53;3.58;;;;;;;-9.78;74.50;98322.25;4945500;29;20059;-88
2021/12/26 04:48:40;;;;;;;5.75;3.28;;;;;;;-9.79;74.28;98312.91;4960541;29;20150;-87
2021/12/26 04:51:09;;;;;;;6.13;3.30;;;;;;;-9.78;74.14;98317.19;4960902;29;20072;-88
2021/12/26 04:53:38;;;;;;;5.63;3.35;;;;;;;-9.77;74.41;98311.34;4943790;29;20063;-89
2021/12/26 04:56:07;;;;;;;6.47;3.30;;;;;;;-9.84;74.32;98300.00;4943917;29;20471;-87
2021/12/26 04:58:35;;;;;;;5.60;3.13;;;;;;;-9.74;74.87;98321.66;4928468;29;20051;-87
2021/12/26 05:01:03;;;;;;;5.53;3.33;;;;;;;-9.81;74.64;98300.16;4944355;29;20123;-89
2021/12/26 05:03:31;;;;;;;5.00;3.00;;;;;;;-9.77;74.71;98306.28;4961344;29;20051;-88
2021/12/26 05:05:58;;;;;;;6.40;3.20;;;;;;;-9.64;74.42;98312.94;4946179;29;20094;-89
2021/12/26 05:08:26;;;;;;;10.20;3.47;;;;;;;-9.62;74.52;98309.69;4961314;29;20055;-90
2021/12/26 05:10:55;;;;;;;5.65;3.15;;;;;;;-9.80;74.50;98268.22;4943373;29;20431;-93
2021/12/26 05:13:23;;;;;;;5.15;3.08;;;;;;;-9.58;74.39;98303.16;4961498;29;20054;-89
2021/12/26 05:15:51;;;;;;;4.80;2.88;;;;;;;-9.63;73.63;98290.28;4961136;29;20063;-90
2021/12/26 05:18:19;;;;;;;5.97;3.13;;;;;;;-9.64;74.07;98297.75;4943418;29;20051;-86
2021/12/26 05:20:51;;;;;;;5.35;3.00;;;;;;;-9.53;74.27;98314.41;4943462;29;20058;-88
2021/12/26 05:23:18;;;;;;;5.68;3.22;;;;;;;-9.66;74.36;98297.66;4950828;29;20055;-87
2021/12/26 05:25:46;;;;;;;5.65;3.17;;;;;;;-9.59;74.74;98307.34;4928539;29;20110;-89
2021/12/26 05:28:13;;;;;;;6.53;3.28;;;;;;;-9.50;74.46;98322.19;4933676;29;20083;-89
2021/12/26 05:30:44;;;;;;;7.40;3.42;;;;;;;-9.51;74.32;98318.75;4944485;29;20181;-89
2021/12/26 05:33:16;;;;;;;6.38;2.97;;;;;;;-9.50;74.57;98310.41;4945016;29;20487;-86
2021/12/26 05:35:45;;;;;;;4.80;3.28;;;;;;;-9.43;74.31;98320.88;4927872;29;20051;-84
2021/12/26 05:38:12;;;;;;;5.03;2.75;;;;;;;-9.53;74.33;98284.06;4948574;29;20059;-84
2021/12/26 05:40:43;;;;;;;5.85;3.35;;;;;;;-9.54;74.41;98284.88;4951044;29;20051;-87
2021/12/26 05:43:11;;;;;;;7.13;3.25;;;;;;;-9.25;74.37;98331.16;4931552;29;20146;-85
2021/12/26 05:45:38;;;;;;;6.30;3.15;;;;;;;-9.27;73.99;98329.41;4943821;29;20142;-84
2021/12/26 05:48:19;;;;;;;5.25;3.13;;;;;;;-9.29;73.92;98328.44;4946141;29;20059;-86
2021/12/26 05:50:48;;;;;;;5.65;3.03;;;;;;;-9.33;73.83;98318.94;4946573;29;20051;-86
2021/12/26 05:53:34;;;;;;;6.68;3.13;;;;;;;-9.28;74.33;98329.31;4963934;29;20146;-89
2021/12/26 05:56:03;;;;;;;6.00;2.90;;;;;;;-9.64;74.15;98277.53;4938384;29;20503;-90
2021/12/26 05:58:32;;;;;;;6.13;3.08;;;;;;;-9.28;73.95;98330.19;4930501;29;20386;-90
2021/12/26 06:00:59;;;;;;;5.35;3.35;;;;;;;-9.16;73.97;98330.00;4945132;29;20499;-89
2021/12/26 06:03:27;;;;;;;10.13;3.80;;;;;;;-8.95;73.54;98334.50;4944453;29;20059;-90
2021/12/26 06:05:55;;;;;;;8.18;3.10;;;;;;;-8.73;72.99;98323.88;4942728;29;20071;-90
2021/12/26 06:08:31;;;;;;;8.23;3.85;;;;;;;-8.60;73.29;98320.34;4936244;29;20097;-89
2021/12/26 06:10:59;;;;;;;11.30;4.03;;;;;;;-8.52;72.68;98319.13;4959554;29;20051;-87
2021/12/26 06:13:26;;;;;;;8.23;3.40;;;;;;;-8.50;72.43;98294.75;4938270;29;20081;-88
2021/12/26 06:15:54;;;;;;;7.50;4.00;;;;;;;-8.25;72.29;98325.59;4951729;29;20062;-86
2021/12/26 06:18:21;;;;;;;8.55;3.67;;;;;;;-8.26;72.07;98315.38;4960030;29;20055;-84
2021/12/26 06:21:07;;;;;;;9.40;3.45;;;;;;;-8.04;71.78;98312.31;4962134;28;20047;-85
2021/12/26 06:23:50;;;;;;;7.78;3.70;;;;;;;-7.91;71.48;98319.75;4961142;29;20059;-86
2021/12/26 06:26:36;;;;;;;5.25;3.45;;;;;;;-7.86;71.24;98304.78;4961811;29;20059;-89
2021/12/26 06:29:17;;;;;;;5.82;3.17;;;;;;;-7.63;70.82;98306.81;4961322;29;20066;-90
2021/12/26 06:32:05;;;;;;;4.88;3.03;;;;;;;-7.74;70.76;98291.84;4920889;29;20063;-89
2021/12/26 06:34:50;;;;;;;7.80;3.97;;;;;;;-7.56;71.35;98307.97;4976744;28;20045;-89
2021/12/26 06:37:38;;;;;;;9.45;3.58;;;;;;;-7.68;71.24;98280.34;4979243;28;20043;-87
2021/12/26 06:40:23;;;;;;;5.80;3.35;;;;;;;-7.57;70.98;98302.81;4976198;29;20045;-88
2021/12/26 06:43:11;;;;;;;7.65;3.35;;;;;;;-7.44;71.01;98306.06;4922900;28;20061;-86
2021/12/26 06:46:17;;;;;;;6.78;3.20;;;;;;;-7.48;70.84;98300.75;4864234;29;20120;-89
2021/12/26 06:49:08;;;;;;;6.00;3.38;;;;;;;-7.40;70.79;98296.91;4821627;29;20054;-90
2021/12/26 06:51:35;;;;;;;8.80;3.85;;;;;;;-7.30;71.18;98299.09;4914003;29;20107;-90
2021/12/26 06:54:03;;;;;;;5.10;2.90;;;;;;;-7.28;70.13;98283.97;4926089;29;20075;-87
2021/12/26 06:56:30;;;;;;;5.72;3.33;;;;;;;-7.29;71.02;98283.09;4941922;29;20058;-89
2021/12/26 06:59:02;;;;;;;5.35;3.20;;;;;;;-7.24;70.44;98265.53;4925585;29;20522;-87
2021/12/26 07:01:29;;;;;;;12.00;3.88;;;;;;;-7.12;70.35;98271.22;4926969;29;20059;-88
2021/12/26 07:03:57;;;;;;;6.70;3.67;;;;;;;-6.85;70.21;98279.22;4952476;29;20055;-90
2021/12/26 07:06:26;;;;;;;8.23;3.70;;;;;;;-7.01;69.66;98253.94;4956454;29;20059;-89
2021/12/26 07:09:06;;;;;;;10.23;4.43;;;;;;;-6.88;70.00;98274.03;4975996;28;20302;-87
2021/12/26 07:11:34;;;;;;;7.70;3.67;;;;;;;-6.76;69.98;98275.38;4965915;29;20082;-86
2021/12/26 07:14:06;;;;;;;9.27;3.90;;;;;;;-6.92;69.85;98273.81;4941610;29;20051;-88
2021/12/26 07:16:34;;;;;;;;;;;;;;;-7.05;70.36;98279.97;4967400;29;20079;-87
2021/12/26 07:19:02;;;;;;;9.60;3.95;;;;;;;-7.16;70.43;98261.72;4964307;29;19993;-91
2021/12/26 07:21:37;;;;;;;6.60;3.20;;;;;;;-7.06;69.70;98271.47;4937043;29;20055;-92
2021/12/26 07:24:08;;;;;;;7.78;3.58;;;;;;;-6.92;70.20;98299.19;4943756;29;20075;-87
2021/12/26 07:26:36;;;;;;;7.97;3.28;;;;;;;-7.05;69.72;98246.97;4943594;29;20098;-89
2021/12/26 07:29:15;;;;;;;4.40;3.08;;;;;;;-6.92;69.84;98273.81;4958264;28;20051;-89
2021/12/26 07:31:43;;;;;;;7.05;3.53;;;;;;;-7.04;70.27;98249.56;4943214;29;20142;-89
2021/12/26 07:34:11;;;;;;;7.93;3.47;;;;;;;-6.78;70.35;98272.75;4930182;29;20082;-85
2021/12/26 07:36:39;;;;;;;6.50;3.40;;;;;;;-6.81;69.64;98265.88;4952651;29;20051;-87
2021/12/26 07:39:19;;;;;;;7.07;3.25;;;;;;;-6.73;69.95;98267.88;4920940;29;20119;-89
2021/12/26 07:41:53;;;;;;;8.68;3.63;;;;;;;-6.89;69.71;98248.56;4929257;29;20051;-89
2021/12/26 07:44:53;;;;;;;6.20;3.65;;;;;;;-7.11;69.99;98203.53;4946292;29;20504;-87
2021/12/26 07:47:30;;;;;;;7.03;3.50;;;;;;;-6.73;70.07;98252.66;4927629;29;20064;-91
2021/12/26 07:50:38;;;;;;;8.47;4.03;;;;;;;-7.07;70.62;98180.03;4956076;29;20103;-93
2021/12/26 07:53:44;;;;;;;8.65;3.58;;;;;;;-6.67;70.41;98251.25;4952800;29;20142;-94
2021/12/26 07:56:52;;;;;;;8.25;3.53;;;;;;;-6.70;69.97;98209.63;4885173;29;20100;-91
2021/12/26 07:59:49;;;;;;;6.90;3.00;;;;;;;-6.69;70.05;98208.81;4863003;29;20067;-82
2021/12/26 08:02:37;;;;;;;9.45;3.67;;;;;;;-6.50;70.12;98230.81;4921941;29;20056;-82
2021/12/26 08:05:34;;;;;;;5.90;3.60;;;;;;;-6.56;69.90;98202.59;4936737;29;20075;-80
2021/12/26 08:08:29;;;;;;;7.35;3.55;;;;;;;-6.42;69.75;98235.44;4937487;29;20047;-82
2021/12/26 08:10:56;;;;;;;7.63;3.28;;;;;;;-6.45;69.87;98237.88;4938741;29;20263;-83
2021/12/26 08:13:23;;;;;;;8.98;3.53;;;;;;;-6.39;69.87;98244.88;4955097;29;20047;-82
2021/12/26 08:15:51;;;;;;;8.07;4.03;;;;;;;-6.34;69.56;98232.38;4974121;29;20055;-81
2021/12/26 08:18:19;;;;;;;8.07;3.30;;;;;;;-6.35;69.34;98230.63;4974050;29;20058;-82
2021/12/26 08:20:48;;;;;;;9.02;3.67;;;;;;;-6.38;69.14;98234.78;4958874;29;20057;-83
2021/12/26 08:23:16;;;;;;;8.30;4.18;;;;;;;-6.38;69.74;98228.84;4941851;29;20050;-81
2021/12/26 08:25:43;;;;;;;7.45;4.53;;;;;;;-6.31;69.17;98213.03;4968543;29;20060;-83
2021/12/26 08:28:15;;;;;;;9.52;3.38;;;;;;;-6.04;68.43;98235.38;4966763;29;20051;-85
2021/12/26 08:30:47;;;;;;;7.95;3.67;;;;;;;-6.16;68.51;98219.59;4960259;29;20080;-89
2021/12/26 08:33:15;;;;;;;6.68;3.70;;;;;;;-6.07;68.69;98210.66;4943344;29;20047;-85
2021/12/26 08:35:45;;;;;;;7.30;3.25;;;;;;;-5.91;67.86;98231.66;4942768;29;20122;-83
2021/12/26 08:38:15;;;;;;;7.78;3.63;;;;;;;-5.89;67.44;98209.66;4950262;29;20058;-85
2021/12/26 08:40:43;;;;;;;6.18;3.28;;;;;;;-5.97;67.77;98204.31;4944622;29;20058;-83
2021/12/26 08:43:10;;;;;;;6.88;3.42;;;;;;;-5.93;68.18;98216.31;4929817;29;20106;-84
2021/12/26 08:45:37;;;;;;;8.10;3.63;;;;;;;-5.86;67.80;98205.59;4962499;29;20055;-86
2021/12/26 08:48:12;;;;;;;11.38;4.03;;;;;;;-5.81;67.71;98215.94;4946206;29;20476;-83
2021/12/26 08:50:41;;;;;;;9.98;3.88;;;;;;;-5.78;67.32;98209.31;4975406;29;20055;-83
2021/12/26 08:53:08;;;;;;;10.32;4.05;;;;;;;-5.99;67.71;98186.44;4965792;29;20054;-85
2021/12/26 08:55:36;;;;;;;9.05;4.13;;;;;;;-5.87;67.53;98192.78;4962195;29;20054;-83
2021/12/26 08:58:06;;;;;;;7.30;3.50;;;;;;;-5.87;67.38;98172.44;4959935;29;20059;-84
2021/12/26 09:00:36;;;;;;;5.95;3.50;;;;;;;-5.72;66.73;98193.47;4960193;29;20055;-85
2021/12/26 09:03:04;;;;;;;7.10;3.38;;;;;;;-5.77;66.81;98182.19;4933299;29;20063;-84
2021/12/26 09:05:47;;;;;;;5.40;3.15;;;;;;;-5.77;66.93;98205.97;4921593;29;20043;-83
2021/12/26 09:08:19;;;;;;;7.28;3.30;;;;;;;-5.67;67.08;98198.72;4932793;29;20047;-87
2021/12/26 09:10:48;;;;;;;7.45;3.17;;;;;;;-5.70;66.59;98181.66;4958613;29;20153;-84
2021/12/26 09:13:15;;;;;;;4.95;3.03;;;;;;;-5.79;66.92;98171.09;4945685;29;20146;-83
2021/12/26 09:15:42;;;;;;;7.47;3.50;;;;;;;-5.65;67.06;98185.25;4923498;29;20059;-86
2021/12/26 09:18:12;;;;;;;7.35;3.60;;;;;;;-5.65;67.02;98187.78;4943797;29;20047;-86
2021/12/26 09:20:39;;;;;;;7.53;3.85;;;;;;;-5.70;67.05;98180.78;4949772;29;20062;-84
2021/12/26 09:23:06;;;;;;;4.55;2.97;;;;;;;-5.81;66.94;98167.63;4959103;29;20047;-84
2021/12/26 09:25:33;;;;;;;5.00;3.03;;;;;;;-5.98;68.09;98142.44;4907454;29;20063;-83
2021/12/26 09:28:00;;;;;;;10.45;3.60;;;;;;;-5.72;67.32;98175.66;4939847;29;20083;-84
2021/12/26 09:30:27;;;;;;;8.05;4.30;;;;;;;-5.67;67.86;98186.88;4944343;29;20434;-83
2021/12/26 09:32:54;;;;;;;7.05;3.38;;;;;;;-5.75;67.48;98150.06;4958672;29;20169;-85
2021/12/26 09:35:22;;;;;;;10.90;3.28;;;;;;;-5.73;66.81;98165.41;4942177;29;20517;-87
2021/12/26 09:37:49;;;;;;;12.50;3.28;;;;;;;-5.71;67.62;98184.13;4925328;29;20060;-85
2021/12/26 09:40:16;;;;;;;5.63;3.03;;;;;;;-5.91;67.20;98146.06;4939849;29;20058;-86
2021/12/26 09:42:45;;;;;;;5.30;2.60;;;;;;;-6.03;67.64;98140.50;4940186;29;20583;-83
2021/12/26 09:45:15;;;;;;;6.68;3.13;;;;;;;-5.90;67.46;98170.66;4950186;29;20057;-87
2021/12/26 09:47:43;;;;;;;6.50;3.28;;;;;;;-5.83;67.84;98154.88;4952126;29;20059;-85
2021/12/26 09:50:13;;;;;;;8.50;3.30;;;;;;;-5.59;67.07;98138.84;4947353;29;20043;-86
2021/12/26 09:52:46;;;;;;;5.70;3.00;;;;;;;-5.45;66.59;98144.47;4934868;29;20051;-84
2021/12/26 09:55:14;;;;;;;6.28;3.20;;;;;;;-5.46;66.00;98151.22;4952667;29;20070;-83
2021/12/26 09:57:42;;;;;;;5.88;3.25;;;;;;;-5.41;65.81;98147.19;4950786;29;20424;-84
2021/12/26 10:00:38;;;;;;;8.02;3.40;;;;;;;-5.53;66.24;98144.16;4930822;29;20051;-87
2021/12/26 10:03:34;;;;;;;5.53;3.35;;;;;;;-5.53;66.29;98133.97;4953650;29;20059;-88
2021/12/26 10:06:17;;;;;;;6.35;3.05;;;;;;;-5.44;66.29;98138.53;4909063;29;20158;-85
2021/12/26 10:08:54;;;;;;;7.75;3.47;;;;;;;-5.28;66.47;98133.25;4933401;29;20051;-83
2021/12/26 10:11:27;;;;;;;8.27;3.60;;;;;;;-5.43;66.46;98112.31;4958568;29;20146;-84
2021/12/26 10:13:58;;;;;;;4.72;2.88;;;;;;;-5.30;67.14;98127.22;4957072;29;20423;-84
2021/12/26 10:16:29;;;;;;;8.55;3.78;;;;;;;-5.21;66.73;98117.38;4940888;29;20506;-84
2021/12/26 10:18:59;;;;;;;6.70;3.20;;;;;;;-5.17;66.89;98118.38;4941663;29;20083;-84
2021/12/26 10:21:36;;;;;;;11.63;3.70;;;;;;;-5.28;66.96;98112.03;4939801;29;20062;-83
2021/12/26 10:24:12;;;;;;;8.80;3.78;;;;;;;-5.62;67.45;98057.28;4918453;29;20058;-82
2021/12/26 10:26:51;;;;;;;6.60;3.28;;;;;;;-5.49;67.38;98078.97;4957607;29;20149;-81
2021/12/26 10:29:33;;;;;;;8.13;3.33;;;;;;;-5.52;68.20;98102.66;4952869;29;20047;-86
2021/12/26 10:32:05;;;;;;;7.70;3.40;;;;;;;-5.61;67.74;98075.16;4960117;28;20058;-85
2021/12/26 10:34:37;;;;;;;7.78;3.40;;;;;;;-5.71;68.20;98062.03;4942988;29;20059;-89
2021/12/26 10:37:08;;;;;;;6.47;3.33;;;;;;;-5.63;68.66;98081.88;4943546;29;20054;-85
2021/12/26 10:39:41;;;;;;;7.22;3.63;;;;;;;-5.63;68.16;98073.38;4944295;29;20117;-84
2021/12/26 10:42:20;;;;;;;6.25;3.10;;;;;;;-5.54;68.18;98083.03;4943177;29;20058;-87
2021/12/26 10:45:09;;;;;;;9.32;3.38;;;;;;;-5.66;68.09;98066.47;4958300;29;20059;-86
2021/12/26 10:47:40;;;;;;;6.40;3.72;;;;;;;-5.68;68.69;98070.63;4961165;29;20058;-85
2021/12/26 10:50:16;;;;;;;5.90;3.00;;;;;;;-5.67;68.44;98084.25;4960762;29;20069;-84
2021/12/26 10:52:59;;;;;;;4.75;3.15;;;;;;;-5.65;68.98;98075.00;4957293;28;20070;-84
2021/12/26 10:55:37;;;;;;;8.15;3.65;;;;;;;-5.68;68.58;98070.63;4960501;29;20051;-84
2021/12/26 10:58:11;;;;;;;9.57;3.53;;;;;;;-5.67;68.52;98085.09;4943445;29;20142;-84
2021/12/26 11:00:49;;;;;;;6.78;3.20;;;;;;;-5.67;68.40;98095.28;4959438;29;20055;-85
2021/12/26 11:03:26;;;;;;;9.32;3.97;;;;;;;-5.90;68.17;98025.72;4957376;28;20090;-84
2021/12/26 11:06:08;;;;;;;9.10;3.80;;;;;;;-5.61;67.89;98067.53;4953920;28;20046;-87
2021/12/26 11:08:43;;;;;;;7.28;3.50;;;;;;;-5.54;67.89;98063.56;4941013;29;20082;-87
2021/12/26 11:11:20;;;;;;;4.72;3.00;;;;;;;-5.67;68.08;98058.81;4923545;29;20070;-84
2021/12/26 11:13:50;;;;;;;5.95;3.40;;;;;;;-5.63;67.68;98045.41;4956249;29;20498;-83
2021/12/26 11:16:17;;;;;;;6.78;3.42;;;;;;;-5.68;68.16;98037.56;4921856;29;20081;-86
2021/12/26 11:18:54;;;;;;;7.22;3.45;;;;;;;-5.46;67.83;98040.91;4947380;29;20142;-84
2021/12/26 11:21:22;;;;;;;5.70;3.47;;;;;;;-5.44;67.90;98047.81;4957709;29;20056;-85
2021/12/26 11:23:50;;;;;;;6.25;3.25;;;;;;;-5.64;68.24;98008.88;4942916;29;20471;-85
2021/12/26 11:26:19;;;;;;;8.10;3.70;;;;;;;-5.56;68.72;98038.03;4957777;29;20048;-89
2021/12/26 11:28:56;;;;;;;10.57;3.60;;;;;;;-5.44;68.57;98060.53;4947776;29;20050;-89
2021/12/26 11:31:30;;;;;;;6.90;3.47;;;;;;;-5.55;68.97;98051.63;4945474;29;20157;-83
2021/12/26 11:34:00;;;;;;;5.32;3.33;;;;;;;-5.72;69.60;98022.13;4957049;29;20105;-85
2021/12/26 11:36:29;;;;;;;8.93;3.47;;;;;;;-5.73;69.56;98036.53;4939930;29;20095;-84
2021/12/26 11:39:19;;;;;;;7.32;3.30;;;;;;;-5.68;70.08;98057.91;4951539;29;20558;-87
2021/12/26 11:42:04;;;;;;;8.60;3.95;;;;;;;-5.65;70.13;98052.97;4929144;29;20467;-84
2021/12/26 11:45:13;;;;;;;8.23;4.10;;;;;;;-5.59;70.17;98055.75;4887162;29;20106;-84
2021/12/26 11:48:39;;;;;;;13.38;4.60;;;;;;;-5.46;69.78;98063.81;4939074;29;20455;-85
2021/12/26 11:52:03;;;;;;;8.07;4.05;;;;;;;-5.38;69.82;98053.16;4930145;29;20059;-83
2021/12/26 11:54:54;;;;;;;11.30;4.57;;;;;;;-5.47;69.68;98047.69;4937424;29;20076;-85
2021/12/26 11:57:44;;;;;;;9.10;4.18;;;;;;;-5.58;70.02;98034.56;4956447;29;20059;-85
2021/12/26 12:00:29;;;;;;;9.80;4.15;;;;;;;-5.62;69.97;98035.25;4902043;29;20062;-86
2021/12/26 12:03:00;;;;;;;12.13;4.53;;;;;;;-5.56;70.26;98047.34;4960886;28;20043;-84
2021/12/26 12:05:36;;;;;;;11.32;4.95;;;;;;;-5.81;70.56;98031.19;4937319;29;20055;-83
2021/12/26 12:08:16;;;;;;;10.82;4.22;;;;;;;-5.60;70.71;98053.13;4960630;29;20055;-84